Time;durP1;ratioP1;P1;durP2;ratioP2;P2;SDS_P1;SDS_P2;PMS_P1;PMS_P2;Temp;Humidity;BMP_temperature;BMP_pressure;BME280_temperature;BME280_humidity;BME280_pressure;Samples;Min_cycle;Max_cycle;Signal;HPM_P1;HPM_P2
2021/03/11 00:00:08;;;;;;;2.40;2.20;;;;;;;;;;5015572;28;20236;-51
2021/03/11 00:02:34;;;;;;;3.55;2.30;;;;;;;;;;5034954;28;20633;-52
2021/03/11 00:05:00;;;;;;;2.60;2.40;;;;;;;;;;5027555;28;20222;-51
2021/03/11 00:07:26;;;;;;;2.50;2.30;;;;;;;;;;5022152;28;20560;-51
2021/03/11 00:09:52;;;;;;;2.92;2.50;;;;;;;;;;5015401;28;20591;-51
2021/03/11 00:12:18;;;;;;;2.70;2.28;;;;;;;;;;5027927;28;20203;-51
2021/03/11 00:14:44;;;;;;;2.83;2.22;;;;;;;;;;5033495;28;20294;-51
2021/03/11 00:17:10;;;;;;;2.67;2.40;;;;;;;;;;5034646;28;20222;-51
2021/03/11 00:19:36;;;;;;;2.70;2.50;;;;;;;;;;5021570;28;20208;-51
2021/03/11 00:22:02;;;;;;;3.10;2.80;;;;;;;;;;5031496;28;20206;-51
2021/03/11 00:24:29;;;;;;;2.63;2.42;;;;;;;;;;5021316;28;20275;-51
2021/03/11 00:26:55;;;;;;;2.10;2.00;;;;;;;;;;5015045;28;20193;-51
2021/03/11 00:29:21;;;;;;;2.97;2.40;;;;;;;;;;5016019;28;20180;-51
2021/03/11 00:31:47;;;;;;;3.22;2.92;;;;;;;;;;5022847;28;20213;-51
2021/03/11 00:34:13;;;;;;;4.18;3.00;;;;;;;;;;5032289;28;20184;-51
2021/03/11 00:36:39;;;;;;;2.58;2.38;;;;;;;;;;5031158;28;20298;-51
2021/03/11 00:39:05;;;;;;;2.83;2.58;;;;;;;;;;5025337;28;20203;-51
2021/03/11 00:41:31;;;;;;;2.80;2.60;;;;;;;;;;5034566;28;20172;-51
2021/03/11 00:43:58;;;;;;;2.67;2.47;;;;;;;;;;5017790;28;20616;-51
2021/03/11 00:46:23;;;;;;;2.90;2.65;;;;;;;;;;5014767;28;20204;-51
2021/03/11 00:48:49;;;;;;;3.13;2.60;;;;;;;;;;5027058;28;20180;-52
2021/03/11 00:51:15;;;;;;;2.13;1.98;;;;;;;;;;5021433;28;20600;-51
2021/03/11 00:53:41;;;;;;;2.88;2.58;;;;;;;;;;5022522;28;20214;-51
2021/03/11 00:56:08;;;;;;;2.63;2.28;;;;;;;;;;5033843;28;20211;-51
2021/03/11 00:58:34;;;;;;;3.35;2.58;;;;;;;;;;5027122;28;20192;-50
2021/03/11 01:01:00;;;;;;;2.83;2.40;;;;;;;;;;5014523;28;20265;-51
2021/03/11 01:03:26;;;;;;;2.92;2.40;;;;;;;;;;5019688;28;20185;-51
2021/03/11 01:05:52;;;;;;;2.20;2.03;;;;;;;;;;5026835;28;20199;-51
2021/03/11 01:08:18;;;;;;;2.30;2.10;;;;;;;;;;5030972;28;20194;-51
2021/03/11 01:10:44;;;;;;;2.40;2.20;;;;;;;;;;5033394;28;20183;-52
2021/03/11 01:13:10;;;;;;;2.67;2.08;;;;;;;;;;5031981;28;20236;-51
2021/03/11 01:15:37;;;;;;;2.38;2.10;;;;;;;;;;5021688;28;20546;-51
2021/03/11 01:18:05;;;;;;;1.83;1.73;;;;;;;;;;5033044;28;20183;-51
2021/03/11 01:20:31;;;;;;;3.25;2.33;;;;;;;;;;5033228;28;20207;-51
2021/03/11 01:22:57;;;;;;;3.10;2.70;;;;;;;;;;5030550;28;20184;-51
2021/03/11 01:25:22;;;;;;;2.22;2.03;;;;;;;;;;5018136;28;20310;-51
2021/03/11 01:27:49;;;;;;;2.40;2.20;;;;;;;;;;5033816;28;20685;-51
2021/03/11 01:30:15;;;;;;;3.25;2.13;;;;;;;;;;5016400;28;20185;-51
2021/03/11 01:32:41;;;;;;;2.00;1.90;;;;;;;;;;5018215;28;20180;-51
2021/03/11 01:35:08;;;;;;;2.08;1.90;;;;;;;;;;5029610;28;20192;-51
2021/03/11 01:37:33;;;;;;;3.55;2.40;;;;;;;;;;5020627;28;20258;-51
2021/03/11 01:40:00;;;;;;;2.55;2.35;;;;;;;;;;5013867;28;20290;-51
2021/03/11 01:42:26;;;;;;;2.05;1.95;;;;;;;;;;5020871;28;20180;-51
2021/03/11 01:44:52;;;;;;;3.80;2.33;;;;;;;;;;5032917;28;20569;-51
2021/03/11 01:47:18;;;;;;;2.60;2.30;;;;;;;;;;5033785;28;20180;-51
2021/03/11 01:49:44;;;;;;;2.60;2.40;;;;;;;;;;5032781;28;20215;-51
2021/03/11 01:52:10;;;;;;;2.60;2.40;;;;;;;;;;5020093;28;20267;-51
2021/03/11 01:54:36;;;;;;;2.60;2.40;;;;;;;;;;5014140;28;20287;-51
2021/03/11 01:57:02;;;;;;;2.80;2.53;;;;;;;;;;5030047;28;20525;-51
2021/03/11 01:59:29;;;;;;;3.20;2.20;;;;;;;;;;5026784;28;20207;-51
2021/03/11 02:01:56;;;;;;;2.53;2.25;;;;;;;;;;5016931;28;20192;-51
2021/03/11 02:04:22;;;;;;;2.53;2.33;;;;;;;;;;5028835;28;20180;-51
2021/03/11 02:06:48;;;;;;;2.88;2.67;;;;;;;;;;5026209;28;20267;-51
2021/03/11 02:09:14;;;;;;;2.42;2.20;;;;;;;;;;5022552;28;20185;-51
2021/03/11 02:11:44;;;;;;;2.20;2.00;;;;;;;;;;5027354;28;20464;-51
2021/03/11 02:14:23;;;;;;;3.25;2.72;;;;;;;;;;5024019;28;20190;-51
2021/03/11 02:16:52;;;;;;;1.90;1.80;;;;;;;;;;5013603;28;20211;-51
2021/03/11 02:19:37;;;;;;;3.35;2.50;;;;;;;;;;5026980;28;20673;-51
2021/03/11 02:22:10;;;;;;;2.38;2.17;;;;;;;;;;5018307;28;20204;-51
2021/03/11 02:24:43;;;;;;;1.95;1.83;;;;;;;;;;5019718;28;20181;-51
2021/03/11 02:27:09;;;;;;;2.35;2.20;;;;;;;;;;5013764;28;20587;-51
2021/03/11 02:29:37;;;;;;;2.40;2.20;;;;;;;;;;5025065;28;20184;-51
2021/03/11 02:32:04;;;;;;;2.40;2.20;;;;;;;;;;5033345;28;20249;-51
2021/03/11 02:34:34;;;;;;;2.83;2.20;;;;;;;;;;5028760;28;20187;-52
2021/03/11 02:37:03;;;;;;;2.55;2.35;;;;;;;;;;5030132;28;20627;-52
2021/03/11 02:39:29;;;;;;;2.40;2.20;;;;;;;;;;5033495;28;20191;-51
2021/03/11 02:41:56;;;;;;;2.92;2.30;;;;;;;;;;5032497;28;20477;-51
2021/03/11 02:44:23;;;;;;;2.83;2.42;;;;;;;;;;5030728;28;20196;-52
2021/03/11 02:46:50;;;;;;;2.65;2.30;;;;;;;;;;5030533;28;20229;-51
2021/03/11 02:49:17;;;;;;;2.33;2.13;;;;;;;;;;5026490;28;20264;-51
2021/03/11 02:51:43;;;;;;;2.60;2.40;;;;;;;;;;5018970;28;20189;-51
2021/03/11 02:54:10;;;;;;;2.70;2.50;;;;;;;;;;5026185;28;20215;-51
2021/03/11 02:56:37;;;;;;;2.25;2.05;;;;;;;;;;5036574;28;20207;-51
2021/03/11 02:59:05;;;;;;;2.03;1.92;;;;;;;;;;5021626;28;20251;-51
2021/03/11 03:01:32;;;;;;;3.28;2.42;;;;;;;;;;5022195;28;20229;-51
2021/03/11 03:03:59;;;;;;;2.47;2.20;;;;;;;;;;5029620;28;20490;-51
2021/03/11 03:06:26;;;;;;;2.83;2.28;;;;;;;;;;5033165;28;20559;-51
2021/03/11 03:08:53;;;;;;;2.67;2.33;;;;;;;;;;5025281;28;20192;-51
2021/03/11 03:11:19;;;;;;;2.13;2.00;;;;;;;;;;5036498;28;20187;-51
2021/03/11 03:13:45;;;;;;;2.40;2.20;;;;;;;;;;5020837;28;20199;-51
2021/03/11 03:16:16;;;;;;;2.45;2.10;;;;;;;;;;5028839;28;20183;-51
2021/03/11 03:18:42;;;;;;;2.10;1.90;;;;;;;;;;5029085;28;20188;-52
2021/03/11 03:21:10;;;;;;;2.30;2.10;;;;;;;;;;5017802;28;20637;-52
2021/03/11 03:23:36;;;;;;;2.58;2.30;;;;;;;;;;5027375;28;20176;-52
2021/03/11 03:26:03;;;;;;;2.00;1.80;;;;;;;;;;5021713;28;20176;-52
2021/03/11 03:28:29;;;;;;;2.35;2.17;;;;;;;;;;5035023;28;20173;-51
2021/03/11 03:30:55;;;;;;;2.40;2.20;;;;;;;;;;5036103;28;20266;-51
2021/03/11 03:33:21;;;;;;;2.58;2.38;;;;;;;;;;5035810;28;20275;-51
2021/03/11 03:35:47;;;;;;;2.00;1.90;;;;;;;;;;5030348;28;20236;-51
2021/03/11 03:38:14;;;;;;;2.28;2.08;;;;;;;;;;5031090;28;20186;-51
2021/03/11 03:40:40;;;;;;;2.08;1.88;;;;;;;;;;5034763;28;20206;-51
2021/03/11 03:43:18;;;;;;;1.95;1.85;;;;;;;;;;5035868;28;20443;-51
2021/03/11 03:45:45;;;;;;;2.55;2.10;;;;;;;;;;5029779;28;20179;-51
2021/03/11 03:48:15;;;;;;;1.85;1.75;;;;;;;;;;5032673;28;20183;-52
2021/03/11 03:50:41;;;;;;;1.92;1.83;;;;;;;;;;5025393;28;20184;-51
2021/03/11 03:53:10;;;;;;;2.33;2.13;;;;;;;;;;5022890;28;20196;-51
2021/03/11 03:55:37;;;;;;;1.70;1.60;;;;;;;;;;5032381;28;20254;-51
2021/03/11 03:58:04;;;;;;;2.20;1.70;;;;;;;;;;5018269;28;20254;-51
2021/03/11 04:00:30;;;;;;;1.85;1.75;;;;;;;;;;5017845;28;20610;-51
2021/03/11 04:02:56;;;;;;;2.13;1.92;;;;;;;;;;5032808;28;20211;-51
2021/03/11 04:05:23;;;;;;;2.30;2.10;;;;;;;;;;5030066;28;20180;-52
2021/03/11 04:07:50;;;;;;;2.03;1.88;;;;;;;;;;5022485;28;20564;-52
2021/03/11 04:10:16;;;;;;;1.88;1.77;;;;;;;;;;5025001;28;20184;-52
2021/03/11 04:12:43;;;;;;;1.90;1.77;;;;;;;;;;5032545;28;20199;-52
2021/03/11 04:15:09;;;;;;;2.03;1.92;;;;;;;;;;5023548;28;20609;-51
2021/03/11 04:17:35;;;;;;;2.00;1.90;;;;;;;;;;5031442;28;20189;-51
2021/03/11 04:20:04;;;;;;;2.58;2.20;;;;;;;;;;5051181;28;20491;-51
2021/03/11 04:22:30;;;;;;;2.47;2.28;;;;;;;;;;5030417;28;20180;-51
2021/03/11 04:24:57;;;;;;;2.30;2.10;;;;;;;;;;5020577;28;20194;-51
2021/03/11 04:27:23;;;;;;;1.85;1.75;;;;;;;;;;5015375;28;20251;-51
2021/03/11 04:29:50;;;;;;;1.67;1.58;;;;;;;;;;5015889;28;20588;-51
2021/03/11 04:32:17;;;;;;;1.70;1.60;;;;;;;;;;5034594;28;20180;-51
2021/03/11 04:34:43;;;;;;;1.98;1.85;;;;;;;;;;5029544;28;20191;-51
2021/03/11 04:37:09;;;;;;;2.00;1.80;;;;;;;;;;5024682;28;20185;-51
2021/03/11 04:39:35;;;;;;;1.75;1.65;;;;;;;;;;5014968;28;20598;-51
2021/03/11 04:42:01;;;;;;;1.70;1.60;;;;;;;;;;5015195;28;20183;-52
2021/03/11 04:44:27;;;;;;;3.33;1.90;;;;;;;;;;5018184;28;20656;-52
2021/03/11 04:46:55;;;;;;;1.90;1.80;;;;;;;;;;5018958;28;20222;-51
2021/03/11 04:49:22;;;;;;;1.45;1.35;;;;;;;;;;5022493;28;20195;-51
2021/03/11 04:51:48;;;;;;;1.73;1.63;;;;;;;;;;5018295;28;20650;-51
2021/03/11 04:54:14;;;;;;;1.80;1.70;;;;;;;;;;5023106;28;20184;-51
2021/03/11 04:56:41;;;;;;;1.75;1.65;;;;;;;;;;5014735;28;20183;-51
2021/03/11 04:59:07;;;;;;;1.73;1.63;;;;;;;;;;5031421;28;20268;-51
2021/03/11 05:01:36;;;;;;;1.60;1.50;;;;;;;;;;5024868;28;20267;-52
2021/03/11 05:04:03;;;;;;;1.80;1.48;;;;;;;;;;5022905;28;20593;-51
2021/03/11 05:06:29;;;;;;;1.65;1.55;;;;;;;;;;5031181;28;20253;-51
2021/03/11 05:08:55;;;;;;;1.75;1.65;;;;;;;;;;5029628;28;20200;-51
2021/03/11 05:11:21;;;;;;;2.20;1.55;;;;;;;;;;5028758;28;20180;-51
2021/03/11 05:13:47;;;;;;;1.70;1.60;;;;;;;;;;5014541;28;20311;-51
2021/03/11 05:16:13;;;;;;;1.80;1.70;;;;;;;;;;5014604;28;20260;-51
2021/03/11 05:18:39;;;;;;;1.60;1.50;;;;;;;;;;5015572;28;20685;-51
2021/03/11 05:21:05;;;;;;;2.33;2.10;;;;;;;;;;5032318;28;20212;-51
2021/03/11 05:23:31;;;;;;;1.83;1.73;;;;;;;;;;5026678;28;20185;-51
2021/03/11 05:25:57;;;;;;;2.15;1.95;;;;;;;;;;5030423;28;20235;-51
2021/03/11 05:28:23;;;;;;;2.10;2.00;;;;;;;;;;5018132;28;20188;-51
2021/03/11 05:30:49;;;;;;;1.80;1.70;;;;;;;;;;5014341;28;20184;-51
2021/03/11 05:33:15;;;;;;;2.20;1.80;;;;;;;;;;5022950;28;20203;-51
2021/03/11 05:35:41;;;;;;;1.63;1.52;;;;;;;;;;5020939;28;20187;-51
2021/03/11 05:38:08;;;;;;;2.10;2.00;;;;;;;;;;5019176;28;20580;-51
2021/03/11 05:40:34;;;;;;;2.97;1.85;;;;;;;;;;5013948;28;20260;-52
2021/03/11 05:43:02;;;;;;;2.10;1.90;;;;;;;;;;5024659;28;20238;-51
2021/03/11 05:45:29;;;;;;;1.60;1.50;;;;;;;;;;5014248;28;20184;-51
2021/03/11 05:47:56;;;;;;;2.03;1.83;;;;;;;;;;5023255;28;20199;-51
2021/03/11 05:50:22;;;;;;;2.05;1.70;;;;;;;;;;5019933;28;20263;-50
2021/03/11 05:52:48;;;;;;;2.10;1.90;;;;;;;;;;5021648;28;20195;-51
2021/03/11 05:55:14;;;;;;;2.05;1.90;;;;;;;;;;5014094;28;20188;-51
2021/03/11 05:57:44;;;;;;;1.50;1.40;;;;;;;;;;5022024;28;20467;-51
2021/03/11 06:00:14;;;;;;;1.50;1.40;;;;;;;;;;5013562;28;20200;-51
2021/03/11 06:02:42;;;;;;;1.60;1.50;;;;;;;;;;5012902;28;20238;-51
2021/03/11 06:05:09;;;;;;;1.77;1.48;;;;;;;;;;5017811;28;20255;-51
2021/03/11 06:07:35;;;;;;;1.90;1.67;;;;;;;;;;5029480;28;20195;-51
2021/03/11 06:10:05;;;;;;;1.67;1.58;;;;;;;;;;5026101;28;20206;-51
2021/03/11 06:12:32;;;;;;;2.78;1.60;;;;;;;;;;5031239;28;20195;-51
2021/03/11 06:15:02;;;;;;;1.60;1.50;;;;;;;;;;5032049;28;20306;-51
2021/03/11 06:17:29;;;;;;;1.60;1.50;;;;;;;;;;5027774;28;20184;-51
2021/03/11 06:19:55;;;;;;;1.60;1.50;;;;;;;;;;5024969;28;20254;-51
2021/03/11 06:22:21;;;;;;;3.97;1.50;;;;;;;;;;5029469;28;20221;-51
2021/03/11 06:24:48;;;;;;;1.73;1.50;;;;;;;;;;5017261;28;20270;-51
2021/03/11 06:27:14;;;;;;;1.95;1.60;;;;;;;;;;5017842;28;20184;-51
2021/03/11 06:29:40;;;;;;;1.60;1.50;;;;;;;;;;5026855;28;20191;-51
2021/03/11 06:32:07;;;;;;;1.80;1.70;;;;;;;;;;5036650;28;20229;-51
2021/03/11 06:34:35;;;;;;;1.90;1.70;;;;;;;;;;5035493;28;20196;-51
2021/03/11 06:37:01;;;;;;;2.17;1.80;;;;;;;;;;5020229;28;20271;-51
2021/03/11 06:39:32;;;;;;;2.42;1.70;;;;;;;;;;5030129;28;20211;-50
2021/03/11 06:41:58;;;;;;;6.85;6.15;;;;;;;;;;5033617;28;20721;-51
2021/03/11 06:44:34;;;;;;;5.50;4.80;;;;;;;;;;5023026;28;20183;-51
2021/03/11 06:47:01;;;;;;;8.40;6.60;;;;;;;;;;5029986;28;20184;-50
2021/03/11 06:49:27;;;;;;;10.10;6.57;;;;;;;;;;5023371;28;20184;-50
2021/03/11 06:52:09;;;;;;;6.45;5.35;;;;;;;;;;5020433;28;20226;-50
2021/03/11 06:55:05;;;;;;;6.95;6.18;;;;;;;;;;5024541;28;20180;-51
2021/03/11 06:57:34;;;;;;;9.68;6.55;;;;;;;;;;5022551;28;20204;-51
2021/03/11 07:00:19;;;;;;;6.90;6.22;;;;;;;;;;5035945;28;20199;-51
2021/03/11 07:02:55;;;;;;;10.85;6.93;;;;;;;;;;5030798;28;20598;-51
2021/03/11 07:05:22;;;;;;;7.30;5.57;;;;;;;;;;5021019;28;20196;-51
2021/03/11 07:07:48;;;;;;;6.72;5.95;;;;;;;;;;5025096;28;20192;-51
2021/03/11 07:10:27;;;;;;;6.43;5.70;;;;;;;;;;5035865;28;20183;-51
2021/03/11 07:12:54;;;;;;;6.85;6.15;;;;;;;;;;5028882;28;20196;-51
2021/03/11 07:15:21;;;;;;;6.57;5.50;;;;;;;;;;5017581;28;20189;-50
2021/03/11 07:17:48;;;;;;;8.13;6.25;;;;;;;;;;5027978;28;20184;-50
2021/03/11 07:20:15;;;;;;;6.22;5.00;;;;;;;;;;5029945;28;20247;-51
2021/03/11 07:22:42;;;;;;;7.90;6.03;;;;;;;;;;5026992;28;20227;-51
2021/03/11 07:25:26;;;;;;;5.47;3.97;;;;;;;;;;5026948;28;20203;-53
2021/03/11 07:27:53;;;;;;;4.63;2.95;;;;;;;;;;5016267;28;20184;-56
2021/03/11 07:30:19;;;;;;;5.10;3.30;;;;;;;;;;5024778;28;20180;-53
2021/03/11 07:32:46;;;;;;;3.80;2.78;;;;;;;;;;5025568;28;20195;-57
2021/03/11 07:35:16;;;;;;;4.38;2.72;;;;;;;;;;5031278;28;20464;-51
2021/03/11 07:37:43;;;;;;;3.33;2.50;;;;;;;;;;5023966;28;20192;-50
2021/03/11 07:40:09;;;;;;;2.95;2.53;;;;;;;;;;5033042;28;20207;-53
2021/03/11 07:42:35;;;;;;;2.83;2.10;;;;;;;;;;5022957;28;20183;-51
2021/03/11 07:45:02;;;;;;;2.72;2.10;;;;;;;;;;5021010;28;20183;-56
2021/03/11 07:47:28;;;;;;;2.42;2.20;;;;;;;;;;5022737;28;20184;-51
2021/03/11 07:49:54;;;;;;;2.47;1.98;;;;;;;;;;5034618;28;20192;-50
2021/03/11 07:52:20;;;;;;;3.45;2.22;;;;;;;;;;5027088;28;20215;-55
2021/03/11 07:54:47;;;;;;;1.92;1.73;;;;;;;;;;5032054;28;20187;-53
2021/03/11 07:57:13;;;;;;;3.95;2.20;;;;;;;;;;5033308;28;20179;-53
2021/03/11 07:59:44;;;;;;;2.10;1.83;;;;;;;;;;5029169;28;20214;-50
2021/03/11 08:02:11;;;;;;;2.35;2.10;;;;;;;;;;5029439;28;20575;-51
2021/03/11 08:04:41;;;;;;;2.85;1.63;;;;;;;;;;5015556;28;20180;-50
2021/03/11 08:07:26;;;;;;;16.58;9.43;;;;;;;;;;5022660;28;20282;-52
2021/03/11 08:09:53;;;;;;;21.20;10.25;;;;;;;;;;5024492;28;20190;-55
2021/03/11 08:12:28;;;;;;;20.75;10.65;;;;;;;;;;5035145;28;20267;-50
2021/03/11 08:14:55;;;;;;;16.15;9.25;;;;;;;;;;5034157;28;20191;-52
2021/03/11 08:17:38;;;;;;;16.20;8.73;;;;;;;;;;5035125;28;20259;-52
2021/03/11 08:20:05;;;;;;;18.25;8.80;;;;;;;;;;5022671;28;20200;-52
2021/03/11 08:23:04;;;;;;;14.85;8.00;;;;;;;;;;5019329;28;20188;-52
2021/03/11 08:25:33;;;;;;;15.18;7.85;;;;;;;;;;4982434;28;20489;-52
2021/03/11 08:28:22;;;;;;;15.13;7.70;;;;;;;;;;5029918;28;20187;-51
2021/03/11 08:30:50;;;;;;;18.95;8.02;;;;;;;;;;5018038;28;20712;-52
2021/03/11 08:33:19;;;;;;;22.42;8.40;;;;;;;;;;5013975;28;20172;-60
2021/03/11 08:35:50;;;;;;;27.23;9.38;;;;;;;;;;5014675;28;20191;-50
2021/03/11 08:38:22;;;;;;;30.20;10.07;;;;;;;;;;5021421;28;20182;-52
2021/03/11 08:41:05;;;;;;;37.58;11.27;;;;;;;;;;5016865;28;20204;-57
2021/03/11 08:43:37;;;;;;;34.22;10.88;;;;;;;;;;5014056;28;20331;-58
2021/03/11 08:46:23;;;;;;;39.97;11.25;;;;;;;;;;5014534;28;20168;-53
2021/03/11 08:48:53;;;;;;;38.65;12.13;;;;;;;;;;5030371;28;20191;-51
2021/03/11 08:51:19;;;;;;;42.95;13.77;;;;;;;;;;5022954;28;20180;-52
2021/03/11 08:53:55;;;;;;;42.75;13.60;;;;;;;;;;5021954;28;20207;-52
2021/03/11 08:56:21;;;;;;;50.28;14.30;;;;;;;;;;5023889;28;20527;-52
2021/03/11 08:58:53;;;;;;;51.95;14.27;;;;;;;;;;5033898;28;20215;-53
2021/03/11 09:01:31;;;;;;;50.35;14.25;;;;;;;;;;5034386;28;20223;-51
2021/03/11 09:03:58;;;;;;;43.50;13.52;;;;;;;;;;5027646;28;20179;-53
2021/03/11 09:06:43;;;;;;;41.53;13.50;;;;;;;;;;5021774;28;20270;-54
2021/03/11 09:09:09;;;;;;;39.88;13.25;;;;;;;;;;5022782;28;20278;-52
2021/03/11 09:11:35;;;;;;;35.22;12.23;;;;;;;;;;5033789;28;20184;-50
2021/03/11 09:14:08;;;;;;;40.70;13.05;;;;;;;;;;5033987;28;20183;-50
2021/03/11 09:16:34;;;;;;;40.85;13.13;;;;;;;;;;5033435;28;20574;-53
2021/03/11 09:19:00;;;;;;;41.60;12.82;;;;;;;;;;5028509;28;20262;-50
2021/03/11 09:21:36;;;;;;;35.10;11.77;;;;;;;;;;5021885;28;20188;-53
2021/03/11 09:24:03;;;;;;;38.38;12.20;;;;;;;;;;5027396;28;20187;-53
2021/03/11 09:26:30;;;;;;;31.40;11.50;;;;;;;;;;5029832;28;20180;-53
2021/03/11 09:28:57;;;;;;;36.30;12.75;;;;;;;;;;5033643;28;20290;-53
2021/03/11 09:31:27;;;;;;;37.22;13.05;;;;;;;;;;5033103;28;20251;-53
2021/03/11 09:33:56;;;;;;;32.08;11.48;;;;;;;;;;5033915;28;20432;-52
2021/03/11 09:36:23;;;;;;;33.92;12.25;;;;;;;;;;5033500;28;20181;-53
2021/03/11 09:38:51;;;;;;;39.45;13.38;;;;;;;;;;5033912;28;20253;-54
2021/03/11 09:41:24;;;;;;;34.25;11.40;;;;;;;;;;5031925;28;20206;-52
2021/03/11 09:43:50;;;;;;;41.10;14.63;;;;;;;;;;5033433;28;20482;-52
2021/03/11 09:46:17;;;;;;;35.92;12.85;;;;;;;;;;5033540;28;20551;-53
2021/03/11 09:48:45;;;;;;;29.02;10.38;;;;;;;;;;5033537;28;20182;-53
2021/03/11 09:51:11;;;;;;;33.55;10.38;;;;;;;;;;5033909;28;20203;-54
2021/03/11 09:53:42;;;;;;;25.27;8.75;;;;;;;;;;5049193;28;20237;-54
2021/03/11 09:56:19;;;;;;;27.33;8.57;;;;;;;;;;5037243;28;20195;-54
2021/03/11 09:58:55;;;;;;;28.77;9.02;;;;;;;;;;5017976;28;20180;-54
2021/03/11 10:01:22;;;;;;;26.17;8.90;;;;;;;;;;5017294;28;20290;-54
2021/03/11 10:03:48;;;;;;;23.45;8.25;;;;;;;;;;5017761;28;20172;-54
2021/03/11 10:06:15;;;;;;;24.30;9.23;;;;;;;;;;5017193;28;20188;-54
2021/03/11 10:08:41;;;;;;;25.30;8.90;;;;;;;;;;5017629;28;20251;-54
2021/03/11 10:11:07;;;;;;;22.55;8.65;;;;;;;;;;5017946;28;20460;-54
2021/03/11 10:13:33;;;;;;;22.50;7.90;;;;;;;;;;5028124;28;20534;-54
2021/03/11 10:16:00;;;;;;;21.77;7.60;;;;;;;;;;5037027;28;20179;-54
2021/03/11 10:18:26;;;;;;;23.25;8.50;;;;;;;;;;5037129;28;20233;-54
2021/03/11 10:21:02;;;;;;;19.15;7.45;;;;;;;;;;5019698;28;20869;-54
2021/03/11 10:23:28;;;;;;;20.40;7.10;;;;;;;;;;5036674;28;20195;-54
2021/03/11 10:26:13;;;;;;;18.65;7.70;;;;;;;;;;5036314;28;20226;-54
2021/03/11 10:28:40;;;;;;;19.33;7.10;;;;;;;;;;5033470;28;20225;-54
2021/03/11 10:31:07;;;;;;;18.63;6.90;;;;;;;;;;5036723;28;20554;-54
2021/03/11 10:33:33;;;;;;;17.23;6.63;;;;;;;;;;5031087;28;20220;-54
2021/03/11 10:36:10;;;;;;;14.65;6.93;;;;;;;;;;5016770;28;20260;-54
2021/03/11 10:38:36;;;;;;;14.25;6.63;;;;;;;;;;5027591;28;20211;-54
2021/03/11 10:41:13;;;;;;;14.68;6.25;;;;;;;;;;5036749;28;20779;-54
2021/03/11 10:43:40;;;;;;;13.23;5.90;;;;;;;;;;5036773;28;20187;-54
2021/03/11 10:46:06;;;;;;;14.15;6.38;;;;;;;;;;5019847;28;20211;-54
2021/03/11 10:48:51;;;;;;;15.57;6.72;;;;;;;;;;5029936;28;20231;-54
2021/03/11 10:51:18;;;;;;;12.50;5.82;;;;;;;;;;5033493;28;20180;-54
2021/03/11 10:53:45;;;;;;;12.57;5.18;;;;;;;;;;5033235;28;20192;-54
2021/03/11 10:56:11;;;;;;;12.40;5.40;;;;;;;;;;5022104;28;20214;-54
2021/03/11 10:58:38;;;;;;;13.25;6.13;;;;;;;;;;5025661;28;20180;-54
2021/03/11 11:01:24;;;;;;;11.32;5.25;;;;;;;;;;5024706;28;20215;-54
2021/03/11 11:03:50;;;;;;;11.77;5.30;;;;;;;;;;5023741;28;20186;-54
2021/03/11 11:06:16;;;;;;;11.73;5.03;;;;;;;;;;5020088;28;20192;-54
2021/03/11 11:08:43;;;;;;;13.35;5.47;;;;;;;;;;5017872;28;20260;-54
2021/03/11 11:11:10;;;;;;;8.98;4.78;;;;;;;;;;5035681;28;20285;-54
2021/03/11 11:13:36;;;;;;;9.80;5.20;;;;;;;;;;5035902;28;20231;-54
2021/03/11 11:16:02;;;;;;;8.65;4.72;;;;;;;;;;5035842;28;20195;-54
2021/03/11 11:18:28;;;;;;;10.52;5.35;;;;;;;;;;5023385;28;20196;-54
2021/03/11 11:20:54;;;;;;;9.45;4.30;;;;;;;;;;5023930;28;20208;-54
2021/03/11 11:23:20;;;;;;;8.57;4.68;;;;;;;;;;5016070;28;20184;-54
2021/03/11 11:25:46;;;;;;;10.38;4.95;;;;;;;;;;5015832;28;20231;-54
2021/03/11 11:28:12;;;;;;;7.32;4.10;;;;;;;;;;5017429;28;20184;-54
2021/03/11 11:30:39;;;;;;;8.93;4.50;;;;;;;;;;5024737;28;20639;-54
2021/03/11 11:33:05;;;;;;;8.77;4.13;;;;;;;;;;5019166;28;20267;-55
2021/03/11 11:35:31;;;;;;;8.48;4.47;;;;;;;;;;5035365;28;20241;-54
2021/03/11 11:37:57;;;;;;;7.57;3.97;;;;;;;;;;5035556;28;20226;-54
2021/03/11 11:40:23;;;;;;;8.20;3.60;;;;;;;;;;5035684;28;20203;-54
2021/03/11 11:42:49;;;;;;;7.03;3.97;;;;;;;;;;5035726;28;20481;-54
2021/03/11 11:45:15;;;;;;;7.18;3.50;;;;;;;;;;5035339;28;20621;-54
2021/03/11 11:47:42;;;;;;;5.53;3.50;;;;;;;;;;5019708;28;20184;-53
2021/03/11 11:50:09;;;;;;;7.68;3.72;;;;;;;;;;5021199;28;20261;-53
2021/03/11 11:52:36;;;;;;;13.05;3.72;;;;;;;;;;5016567;28;20188;-53
2021/03/11 11:55:02;;;;;;;9.05;3.78;;;;;;;;;;5015202;28;20211;-51
2021/03/11 11:57:28;;;;;;;7.45;3.30;;;;;;;;;;5017612;28;20230;-52
2021/03/11 11:59:54;;;;;;;10.82;3.60;;;;;;;;;;5018727;28;20523;-53
2021/03/11 12:02:20;;;;;;;8.95;3.78;;;;;;;;;;5015580;28;20563;-49
2021/03/11 12:04:46;;;;;;;6.03;3.25;;;;;;;;;;5026582;28;20230;-50
2021/03/11 12:07:12;;;;;;;9.88;3.22;;;;;;;;;;5016211;28;20212;-52
2021/03/11 12:09:38;;;;;;;7.82;3.45;;;;;;;;;;5015311;28;20191;-51
2021/03/11 12:12:04;;;;;;;6.47;3.20;;;;;;;;;;5015127;28;20196;-53
2021/03/11 12:14:32;;;;;;;11.82;3.55;;;;;;;;;;5019206;28;20218;-53
2021/03/11 12:16:58;;;;;;;8.23;3.30;;;;;;;;;;5033231;28;20179;-53
2021/03/11 12:19:24;;;;;;;10.65;3.15;;;;;;;;;;5026349;28;20283;-53
2021/03/11 12:21:50;;;;;;;7.78;3.20;;;;;;;;;;5023769;28;20189;-49
2021/03/11 12:24:16;;;;;;;6.40;2.95;;;;;;;;;;5014707;28;20196;-52
2021/03/11 12:26:43;;;;;;;8.65;3.10;;;;;;;;;;5013999;28;20179;-60
2021/03/11 12:29:09;;;;;;;7.15;3.17;;;;;;;;;;5025239;28;20207;-64
2021/03/11 12:31:35;;;;;;;4.53;2.92;;;;;;;;;;5016896;28;20504;-61
2021/03/11 12:34:01;;;;;;;4.53;2.63;;;;;;;;;;5023189;28;20271;-56
2021/03/11 12:36:27;;;;;;;5.03;2.80;;;;;;;;;;5016807;28;20256;-53
2021/03/11 12:38:54;;;;;;;4.65;2.58;;;;;;;;;;5015933;28;20211;-52
2021/03/11 12:41:20;;;;;;;5.75;2.72;;;;;;;;;;5014978;28;20789;-55
2021/03/11 12:43:47;;;;;;;3.88;2.67;;;;;;;;;;5013339;28;20452;-55
2021/03/11 12:46:13;;;;;;;5.07;2.38;;;;;;;;;;5019887;28;20199;-53
2021/03/11 12:48:39;;;;;;;5.78;2.42;;;;;;;;;;5019786;28;20542;-53
2021/03/11 12:51:05;;;;;;;4.35;2.30;;;;;;;;;;5023465;28;20271;-52
2021/03/11 12:53:31;;;;;;;4.90;2.65;;;;;;;;;;5033247;28;20274;-59
2021/03/11 12:55:57;;;;;;;3.42;2.20;;;;;;;;;;5014205;28;20215;-53
2021/03/11 12:58:23;;;;;;;4.45;2.55;;;;;;;;;;5014515;28;20194;-52
2021/03/11 13:00:51;;;;;;;4.38;2.33;;;;;;;;;;5014148;28;20475;-50
2021/03/11 13:03:17;;;;;;;3.22;2.00;;;;;;;;;;5015954;28;20282;-52
2021/03/11 13:05:43;;;;;;;3.63;2.25;;;;;;;;;;5022871;28;20180;-56
2021/03/11 13:08:09;;;;;;;4.18;2.33;;;;;;;;;;5034037;28;20267;-53
2021/03/11 13:10:37;;;;;;;3.55;2.20;;;;;;;;;;5030682;28;20188;-52
2021/03/11 13:13:03;;;;;;;5.03;2.78;;;;;;;;;;5031149;28;20215;-56
2021/03/11 13:15:30;;;;;;;4.15;2.15;;;;;;;;;;5014332;28;20283;-50
2021/03/11 13:17:56;;;;;;;5.10;2.20;;;;;;;;;;5018554;28;20195;-55
2021/03/11 13:20:22;;;;;;;6.65;2.53;;;;;;;;;;5016180;28;20251;-57
2021/03/11 13:22:49;;;;;;;2.25;1.73;;;;;;;;;;5014243;28;20479;-58
2021/03/11 13:25:16;;;;;;;5.50;2.17;;;;;;;;;;5015579;28;20177;-50
2021/03/11 13:27:42;;;;;;;6.35;2.22;;;;;;;;;;5015639;28;20268;-54
2021/03/11 13:30:09;;;;;;;3.05;2.10;;;;;;;;;;5022244;28;20599;-54
2021/03/11 13:32:34;;;;;;;8.32;2.47;;;;;;;;;;5022454;28;20210;-49
2021/03/11 13:35:01;;;;;;;3.50;1.98;;;;;;;;;;5025400;28;20619;-60
2021/03/11 13:37:27;;;;;;;5.45;2.30;;;;;;;;;;5014110;28;20583;-56
2021/03/11 13:39:53;;;;;;;3.15;1.60;;;;;;;;;;5014445;28;20212;-55
2021/03/11 13:42:20;;;;;;;5.25;1.65;;;;;;;;;;5028670;28;20191;-50
2021/03/11 13:44:47;;;;;;;2.45;1.77;;;;;;;;;;5017100;28;20291;-49
2021/03/11 13:47:12;;;;;;;5.07;1.42;;;;;;;;;;5033903;28;20267;-53
2021/03/11 13:49:38;;;;;;;3.13;1.73;;;;;;;;;;5028963;28;20622;-57
2021/03/11 13:52:05;;;;;;;2.97;1.60;;;;;;;;;;5032710;28;20202;-53
2021/03/11 13:54:31;;;;;;;3.35;1.38;;;;;;;;;;5033491;28;20234;-52
2021/03/11 13:56:57;;;;;;;4.03;1.65;;;;;;;;;;5033027;28;20180;-53
2021/03/11 13:59:23;;;;;;;1.75;1.13;;;;;;;;;;5029772;28;20585;-59
2021/03/11 14:01:49;;;;;;;2.35;1.50;;;;;;;;;;5032608;28;20211;-55
2021/03/11 14:04:15;;;;;;;2.47;1.20;;;;;;;;;;5024734;28;20218;-57
2021/03/11 14:06:41;;;;;;;3.15;1.35;;;;;;;;;;5013722;28;20177;-58
2021/03/11 14:09:07;;;;;;;1.83;1.20;;;;;;;;;;5024407;28;20184;-50
2021/03/11 14:11:33;;;;;;;2.17;1.42;;;;;;;;;;5030714;28;20194;-52
2021/03/11 14:13:59;;;;;;;2.70;1.20;;;;;;;;;;5021660;28;20204;-54
2021/03/11 14:16:25;;;;;;;6.35;1.60;;;;;;;;;;5029397;28;20233;-50
2021/03/11 14:18:51;;;;;;;3.20;1.30;;;;;;;;;;5027612;28;20254;-50
2021/03/11 14:21:17;;;;;;;5.75;1.30;;;;;;;;;;5029153;28;20509;-50
2021/03/11 14:23:43;;;;;;;4.50;1.75;;;;;;;;;;5031601;28;20230;-50
2021/03/11 14:26:10;;;;;;;2.45;1.35;;;;;;;;;;5017282;28;20188;-50
2021/03/11 14:28:35;;;;;;;1.42;1.23;;;;;;;;;;5011802;28;20180;-50
2021/03/11 14:31:02;;;;;;;3.53;1.05;;;;;;;;;;5013293;28;20196;-50
2021/03/11 14:33:28;;;;;;;2.65;1.35;;;;;;;;;;5013612;28;20181;-50
2021/03/11 14:35:54;;;;;;;3.03;1.25;;;;;;;;;;5012626;28;20268;-50
2021/03/11 14:38:20;;;;;;;1.80;1.20;;;;;;;;;;5028787;28;20238;-50
2021/03/11 14:40:46;;;;;;;3.25;1.30;;;;;;;;;;5025627;28;20208;-50